sensor_id;sensor_type;location;lat;lon;timestamp;P1;durP1;ratioP1;P2;durP2;ratioP2
17953;SDS011;9102;53.548;9.926;2024-03-02T00:01:31;31.27;;;15.82;;
17953;SDS011;9102;53.548;9.926;2024-03-02T00:03:58;32.97;;;17.13;;
17953;SDS011;9102;53.548;9.926;2024-03-02T00:06:25;34.08;;;17.00;;
17953;SDS011;9102;53.548;9.926;2024-03-02T00:08:55;29.65;;;16.35;;
17953;SDS011;9102;53.548;9.926;2024-03-02T00:11:24;33.55;;;16.42;;
17953;SDS011;9102;53.548;9.926;2024-03-02T00:13:52;34.08;;;17.02;;
17953;SDS011;9102;53.548;9.926;2024-03-02T00:16:20;34.75;;;16.35;;
17953;SDS011;9102;53.548;9.926;2024-03-02T00:18:48;33.13;;;16.25;;
17953;SDS011;9102;53.548;9.926;2024-03-02T00:21:15;33.25;;;16.77;;
17953;SDS011;9102;53.548;9.926;2024-03-02T00:23:45;32.50;;;16.65;;
17953;SDS011;9102;53.548;9.926;2024-03-02T00:26:12;34.95;;;16.38;;
17953;SDS011;9102;53.548;9.926;2024-03-02T00:28:39;33.45;;;16.27;;
17953;SDS011;9102;53.548;9.926;2024-03-02T00:31:09;30.77;;;15.70;;
17953;SDS011;9102;53.548;9.926;2024-03-02T00:33:40;36.78;;;15.85;;
17953;SDS011;9102;53.548;9.926;2024-03-02T00:36:08;37.03;;;16.50;;
17953;SDS011;9102;53.548;9.926;2024-03-02T00:38:42;32.97;;;16.67;;
17953;SDS011;9102;53.548;9.926;2024-03-02T00:41:15;36.17;;;15.98;;
17953;SDS011;9102;53.548;9.926;2024-03-02T00:43:47;35.30;;;17.30;;
17953;SDS011;9102;53.548;9.926;2024-03-02T00:46:18;39.67;;;18.08;;
17953;SDS011;9102;53.548;9.926;2024-03-02T00:48:51;34.03;;;16.55;;
17953;SDS011;9102;53.548;9.926;2024-03-02T00:51:20;36.33;;;17.63;;
17953;SDS011;9102;53.548;9.926;2024-03-02T00:53:48;43.40;;;19.17;;
17953;SDS011;9102;53.548;9.926;2024-03-02T00:56:15;40.75;;;19.00;;
17953;SDS011;9102;53.548;9.926;2024-03-02T00:58:42;41.15;;;19.15;;
17953;SDS011;9102;53.548;9.926;2024-03-02T01:01:09;46.72;;;19.95;;
17953;SDS011;9102;53.548;9.926;2024-03-02T01:03:36;45.50;;;20.38;;
17953;SDS011;9102;53.548;9.926;2024-03-02T01:06:04;43.40;;;19.90;;
17953;SDS011;9102;53.548;9.926;2024-03-02T01:08:32;54.05;;;21.35;;
17953;SDS011;9102;53.548;9.926;2024-03-02T01:10:59;47.20;;;21.00;;
17953;SDS011;9102;53.548;9.926;2024-03-02T01:13:26;47.13;;;20.45;;
17953;SDS011;9102;53.548;9.926;2024-03-02T01:15:53;52.40;;;21.23;;
17953;SDS011;9102;53.548;9.926;2024-03-02T01:18:20;50.35;;;22.65;;
17953;SDS011;9102;53.548;9.926;2024-03-02T01:20:47;52.53;;;22.90;;
17953;SDS011;9102;53.548;9.926;2024-03-02T01:23:17;47.17;;;21.85;;
17953;SDS011;9102;53.548;9.926;2024-03-02T01:25:45;53.53;;;23.25;;
17953;SDS011;9102;53.548;9.926;2024-03-02T01:28:12;52.10;;;22.75;;
17953;SDS011;9102;53.548;9.926;2024-03-02T01:30:39;49.60;;;23.58;;
17953;SDS011;9102;53.548;9.926;2024-03-02T01:33:06;56.67;;;24.38;;
17953;SDS011;9102;53.548;9.926;2024-03-02T01:35:33;50.80;;;23.45;;
17953;SDS011;9102;53.548;9.926;2024-03-02T01:38:00;60.45;;;24.48;;
17953;SDS011;9102;53.548;9.926;2024-03-02T01:40:29;53.58;;;24.48;;
17953;SDS011;9102;53.548;9.926;2024-03-02T01:42:56;58.67;;;25.00;;
17953;SDS011;9102;53.548;9.926;2024-03-02T01:45:23;56.88;;;25.30;;
17953;SDS011;9102;53.548;9.926;2024-03-02T01:47:50;56.58;;;25.38;;
17953;SDS011;9102;53.548;9.926;2024-03-02T01:50:19;59.05;;;26.02;;
17953;SDS011;9102;53.548;9.926;2024-03-02T01:52:51;64.10;;;26.58;;
17953;SDS011;9102;53.548;9.926;2024-03-02T01:55:31;57.28;;;25.38;;
17953;SDS011;9102;53.548;9.926;2024-03-02T01:57:59;68.40;;;27.35;;
17953;SDS011;9102;53.548;9.926;2024-03-02T02:00:27;67.20;;;27.20;;
17953;SDS011;9102;53.548;9.926;2024-03-02T02:02:55;67.13;;;28.85;;
17953;SDS011;9102;53.548;9.926;2024-03-02T02:05:22;62.50;;;26.67;;
17953;SDS011;9102;53.548;9.926;2024-03-02T02:07:49;63.17;;;27.55;;
17953;SDS011;9102;53.548;9.926;2024-03-02T02:10:16;64.40;;;27.23;;
17953;SDS011;9102;53.548;9.926;2024-03-02T02:12:44;71.10;;;28.92;;
17953;SDS011;9102;53.548;9.926;2024-03-02T02:15:22;71.65;;;29.60;;
17953;SDS011;9102;53.548;9.926;2024-03-02T02:17:49;66.25;;;26.95;;
17953;SDS011;9102;53.548;9.926;2024-03-02T02:20:16;69.00;;;27.55;;
17953;SDS011;9102;53.548;9.926;2024-03-02T02:22:53;67.00;;;28.30;;
17953;SDS011;9102;53.548;9.926;2024-03-02T02:25:24;72.30;;;29.10;;
17953;SDS011;9102;53.548;9.926;2024-03-02T02:27:51;64.70;;;28.15;;
17953;SDS011;9102;53.548;9.926;2024-03-02T02:30:18;64.78;;;27.08;;
17953;SDS011;9102;53.548;9.926;2024-03-02T02:32:47;65.15;;;27.83;;
17953;SDS011;9102;53.548;9.926;2024-03-02T02:35:14;60.72;;;26.15;;
17953;SDS011;9102;53.548;9.926;2024-03-02T02:37:41;61.55;;;27.42;;
17953;SDS011;9102;53.548;9.926;2024-03-02T02:40:10;73.53;;;28.25;;
17953;SDS011;9102;53.548;9.926;2024-03-02T02:42:37;66.22;;;26.83;;
17953;SDS011;9102;53.548;9.926;2024-03-02T02:45:05;65.85;;;27.98;;
17953;SDS011;9102;53.548;9.926;2024-03-02T02:47:32;61.50;;;27.42;;
17953;SDS011;9102;53.548;9.926;2024-03-02T02:50:00;67.32;;;27.42;;
17953;SDS011;9102;53.548;9.926;2024-03-02T02:52:30;63.88;;;28.23;;
17953;SDS011;9102;53.548;9.926;2024-03-02T02:54:58;72.05;;;28.45;;
17953;SDS011;9102;53.548;9.926;2024-03-02T02:57:26;63.35;;;28.23;;
17953;SDS011;9102;53.548;9.926;2024-03-02T02:59:55;59.30;;;26.30;;
17953;SDS011;9102;53.548;9.926;2024-03-02T03:02:22;66.63;;;26.90;;
17953;SDS011;9102;53.548;9.926;2024-03-02T03:04:49;64.85;;;26.83;;
17953;SDS011;9102;53.548;9.926;2024-03-02T03:07:15;67.43;;;27.25;;
17953;SDS011;9102;53.548;9.926;2024-03-02T03:09:43;62.78;;;27.67;;
17953;SDS011;9102;53.548;9.926;2024-03-02T03:12:10;60.60;;;26.90;;
17953;SDS011;9102;53.548;9.926;2024-03-02T03:14:38;71.75;;;29.42;;
17953;SDS011;9102;53.548;9.926;2024-03-02T03:17:07;72.95;;;27.85;;
17953;SDS011;9102;53.548;9.926;2024-03-02T03:19:33;61.28;;;27.52;;
17953;SDS011;9102;53.548;9.926;2024-03-02T03:22:00;64.50;;;28.23;;
17953;SDS011;9102;53.548;9.926;2024-03-02T03:24:28;69.82;;;27.50;;
17953;SDS011;9102;53.548;9.926;2024-03-02T03:26:55;64.97;;;28.48;;
17953;SDS011;9102;53.548;9.926;2024-03-02T03:29:22;62.83;;;26.23;;
17953;SDS011;9102;53.548;9.926;2024-03-02T03:31:50;60.97;;;26.27;;
17953;SDS011;9102;53.548;9.926;2024-03-02T03:34:17;63.78;;;27.52;;
17953;SDS011;9102;53.548;9.926;2024-03-02T03:36:43;66.25;;;27.58;;
17953;SDS011;9102;53.548;9.926;2024-03-02T03:39:10;62.47;;;26.52;;
17953;SDS011;9102;53.548;9.926;2024-03-02T03:41:37;66.40;;;27.17;;
17953;SDS011;9102;53.548;9.926;2024-03-02T03:44:04;61.15;;;27.77;;
17953;SDS011;9102;53.548;9.926;2024-03-02T03:46:30;64.22;;;28.55;;
17953;SDS011;9102;53.548;9.926;2024-03-02T03:48:58;66.28;;;27.30;;
17953;SDS011;9102;53.548;9.926;2024-03-02T03:51:25;61.38;;;25.92;;
17953;SDS011;9102;53.548;9.926;2024-03-02T03:53:52;61.25;;;26.90;;
17953;SDS011;9102;53.548;9.926;2024-03-02T03:56:19;63.10;;;26.20;;
17953;SDS011;9102;53.548;9.926;2024-03-02T03:58:46;60.90;;;27.38;;
17953;SDS011;9102;53.548;9.926;2024-03-02T04:01:12;63.15;;;26.88;;
17953;SDS011;9102;53.548;9.926;2024-03-02T04:03:39;61.42;;;26.00;;
17953;SDS011;9102;53.548;9.926;2024-03-02T04:06:07;64.82;;;26.20;;
17953;SDS011;9102;53.548;9.926;2024-03-02T04:08:34;59.42;;;26.60;;
17953;SDS011;9102;53.548;9.926;2024-03-02T04:11:01;60.78;;;26.25;;
17953;SDS011;9102;53.548;9.926;2024-03-02T04:13:29;57.30;;;25.48;;
17953;SDS011;9102;53.548;9.926;2024-03-02T04:15:56;62.47;;;25.88;;
17953;SDS011;9102;53.548;9.926;2024-03-02T04:18:23;57.15;;;25.60;;
17953;SDS011;9102;53.548;9.926;2024-03-02T04:20:50;57.33;;;24.58;;
17953;SDS011;9102;53.548;9.926;2024-03-02T04:23:18;60.83;;;25.25;;
17953;SDS011;9102;53.548;9.926;2024-03-02T04:25:45;57.38;;;26.05;;
17953;SDS011;9102;53.548;9.926;2024-03-02T04:28:11;55.08;;;26.23;;
17953;SDS011;9102;53.548;9.926;2024-03-02T04:30:38;58.80;;;26.33;;
17953;SDS011;9102;53.548;9.926;2024-03-02T04:33:05;64.28;;;26.77;;
17953;SDS011;9102;53.548;9.926;2024-03-02T04:35:35;54.78;;;24.58;;
17953;SDS011;9102;53.548;9.926;2024-03-02T04:38:02;59.95;;;25.52;;
17953;SDS011;9102;53.548;9.926;2024-03-02T04:40:30;58.75;;;24.95;;
17953;SDS011;9102;53.548;9.926;2024-03-02T04:42:58;57.58;;;25.38;;
17953;SDS011;9102;53.548;9.926;2024-03-02T04:45:25;58.15;;;24.73;;
17953;SDS011;9102;53.548;9.926;2024-03-02T04:47:52;61.88;;;26.20;;
17953;SDS011;9102;53.548;9.926;2024-03-02T04:50:19;56.30;;;24.88;;
17953;SDS011;9102;53.548;9.926;2024-03-02T04:52:45;55.25;;;25.77;;
17953;SDS011;9102;53.548;9.926;2024-03-02T04:55:12;61.90;;;25.85;;
17953;SDS011;9102;53.548;9.926;2024-03-02T04:58:17;58.67;;;26.27;;
17953;SDS011;9102;53.548;9.926;2024-03-02T05:00:43;51.85;;;24.40;;
17953;SDS011;9102;53.548;9.926;2024-03-02T05:03:11;54.05;;;25.98;;
17953;SDS011;9102;53.548;9.926;2024-03-02T05:05:38;52.22;;;23.95;;
17953;SDS011;9102;53.548;9.926;2024-03-02T05:08:05;58.67;;;25.75;;
17953;SDS011;9102;53.548;9.926;2024-03-02T05:10:32;55.78;;;24.60;;
17953;SDS011;9102;53.548;9.926;2024-03-02T05:12:59;52.30;;;24.15;;
17953;SDS011;9102;53.548;9.926;2024-03-02T05:15:27;57.92;;;25.42;;
17953;SDS011;9102;53.548;9.926;2024-03-02T05:17:54;55.83;;;25.80;;
17953;SDS011;9102;53.548;9.926;2024-03-02T05:20:22;53.92;;;24.67;;
17953;SDS011;9102;53.548;9.926;2024-03-02T05:22:48;57.92;;;26.38;;
17953;SDS011;9102;53.548;9.926;2024-03-02T05:25:15;58.90;;;25.52;;
17953;SDS011;9102;53.548;9.926;2024-03-02T05:27:42;54.55;;;24.20;;
17953;SDS011;9102;53.548;9.926;2024-03-02T05:30:09;49.42;;;24.00;;
17953;SDS011;9102;53.548;9.926;2024-03-02T05:32:38;58.97;;;25.17;;
17953;SDS011;9102;53.548;9.926;2024-03-02T05:35:05;59.30;;;24.55;;
17953;SDS011;9102;53.548;9.926;2024-03-02T05:37:33;53.13;;;24.85;;
17953;SDS011;9102;53.548;9.926;2024-03-02T05:40:00;56.58;;;24.92;;
17953;SDS011;9102;53.548;9.926;2024-03-02T05:42:27;56.55;;;24.65;;
17953;SDS011;9102;53.548;9.926;2024-03-02T05:44:55;57.63;;;24.73;;
17953;SDS011;9102;53.548;9.926;2024-03-02T05:47:22;62.20;;;25.63;;
17953;SDS011;9102;53.548;9.926;2024-03-02T05:49:50;54.50;;;24.35;;
17953;SDS011;9102;53.548;9.926;2024-03-02T05:52:17;51.00;;;23.33;;
17953;SDS011;9102;53.548;9.926;2024-03-02T05:54:45;61.35;;;25.52;;
17953;SDS011;9102;53.548;9.926;2024-03-02T05:57:13;55.70;;;24.65;;
17953;SDS011;9102;53.548;9.926;2024-03-02T05:59:57;53.90;;;24.63;;
17953;SDS011;9102;53.548;9.926;2024-03-02T06:02:24;58.28;;;25.80;;
17953;SDS011;9102;53.548;9.926;2024-03-02T06:04:52;54.45;;;23.88;;
17953;SDS011;9102;53.548;9.926;2024-03-02T06:07:21;56.20;;;23.73;;
17953;SDS011;9102;53.548;9.926;2024-03-02T06:09:47;53.42;;;24.17;;
17953;SDS011;9102;53.548;9.926;2024-03-02T06:12:16;49.92;;;24.05;;
17953;SDS011;9102;53.548;9.926;2024-03-02T06:14:43;53.65;;;23.65;;
17953;SDS011;9102;53.548;9.926;2024-03-02T06:17:10;51.00;;;23.92;;
17953;SDS011;9102;53.548;9.926;2024-03-02T06:19:37;53.15;;;25.38;;
17953;SDS011;9102;53.548;9.926;2024-03-02T06:22:05;50.45;;;23.95;;
17953;SDS011;9102;53.548;9.926;2024-03-02T06:24:35;54.88;;;24.77;;
17953;SDS011;9102;53.548;9.926;2024-03-02T06:27:02;54.78;;;24.15;;
17953;SDS011;9102;53.548;9.926;2024-03-02T06:29:29;54.13;;;23.48;;
17953;SDS011;9102;53.548;9.926;2024-03-02T06:31:58;54.75;;;23.35;;
17953;SDS011;9102;53.548;9.926;2024-03-02T06:34:25;55.35;;;24.52;;
17953;SDS011;9102;53.548;9.926;2024-03-02T06:36:51;60.67;;;24.98;;
17953;SDS011;9102;53.548;9.926;2024-03-02T06:39:20;55.05;;;24.58;;
17953;SDS011;9102;53.548;9.926;2024-03-02T06:41:46;59.97;;;25.40;;
17953;SDS011;9102;53.548;9.926;2024-03-02T06:44:13;47.85;;;23.67;;
17953;SDS011;9102;53.548;9.926;2024-03-02T06:46:40;50.55;;;23.00;;
17953;SDS011;9102;53.548;9.926;2024-03-02T06:49:07;53.85;;;23.73;;
17953;SDS011;9102;53.548;9.926;2024-03-02T06:51:35;53.05;;;23.50;;
17953;SDS011;9102;53.548;9.926;2024-03-02T06:54:02;57.45;;;23.85;;
17953;SDS011;9102;53.548;9.926;2024-03-02T06:56:30;49.30;;;23.40;;
17953;SDS011;9102;53.548;9.926;2024-03-02T06:58:58;49.80;;;23.00;;
17953;SDS011;9102;53.548;9.926;2024-03-02T07:01:24;49.85;;;22.80;;
17953;SDS011;9102;53.548;9.926;2024-03-02T07:03:53;49.15;;;21.95;;
17953;SDS011;9102;53.548;9.926;2024-03-02T07:06:20;49.20;;;22.55;;
17953;SDS011;9102;53.548;9.926;2024-03-02T07:08:46;49.40;;;22.27;;
17953;SDS011;9102;53.548;9.926;2024-03-02T07:11:13;47.53;;;21.73;;
17953;SDS011;9102;53.548;9.926;2024-03-02T07:13:41;48.83;;;21.73;;
17953;SDS011;9102;53.548;9.926;2024-03-02T07:16:08;49.65;;;22.45;;
17953;SDS011;9102;53.548;9.926;2024-03-02T07:18:55;51.45;;;23.40;;
17953;SDS011;9102;53.548;9.926;2024-03-02T07:21:21;47.35;;;22.50;;
17953;SDS011;9102;53.548;9.926;2024-03-02T07:23:48;48.90;;;22.95;;
17953;SDS011;9102;53.548;9.926;2024-03-02T07:26:16;45.80;;;21.48;;
17953;SDS011;9102;53.548;9.926;2024-03-02T07:28:45;43.83;;;21.73;;
17953;SDS011;9102;53.548;9.926;2024-03-02T07:31:13;43.58;;;21.35;;
17953;SDS011;9102;53.548;9.926;2024-03-02T07:33:40;49.22;;;21.45;;
17953;SDS011;9102;53.548;9.926;2024-03-02T07:36:07;45.67;;;22.55;;
17953;SDS011;9102;53.548;9.926;2024-03-02T07:38:34;44.25;;;21.58;;
17953;SDS011;9102;53.548;9.926;2024-03-02T07:41:01;42.67;;;21.80;;
17953;SDS011;9102;53.548;9.926;2024-03-02T07:43:29;45.55;;;21.70;;
17953;SDS011;9102;53.548;9.926;2024-03-02T07:45:59;46.13;;;21.50;;
17953;SDS011;9102;53.548;9.926;2024-03-02T07:48:26;46.80;;;21.42;;
17953;SDS011;9102;53.548;9.926;2024-03-02T07:50:53;45.42;;;21.05;;
17953;SDS011;9102;53.548;9.926;2024-03-02T07:53:19;48.72;;;22.05;;
17953;SDS011;9102;53.548;9.926;2024-03-02T07:55:46;43.50;;;20.60;;
17953;SDS011;9102;53.548;9.926;2024-03-02T07:58:13;46.22;;;21.30;;
17953;SDS011;9102;53.548;9.926;2024-03-02T08:00:40;43.60;;;21.48;;
17953;SDS011;9102;53.548;9.926;2024-03-02T08:03:08;43.10;;;20.50;;
17953;SDS011;9102;53.548;9.926;2024-03-02T08:05:36;46.20;;;22.13;;
17953;SDS011;9102;53.548;9.926;2024-03-02T08:08:04;45.38;;;21.10;;
17953;SDS011;9102;53.548;9.926;2024-03-02T08:10:30;45.83;;;21.67;;
17953;SDS011;9102;53.548;9.926;2024-03-02T08:12:58;47.28;;;20.25;;
17953;SDS011;9102;53.548;9.926;2024-03-02T08:15:25;40.72;;;20.13;;
17953;SDS011;9102;53.548;9.926;2024-03-02T08:17:52;41.60;;;20.48;;
17953;SDS011;9102;53.548;9.926;2024-03-02T08:20:20;42.88;;;20.33;;
17953;SDS011;9102;53.548;9.926;2024-03-02T08:22:47;35.90;;;18.95;;
17953;SDS011;9102;53.548;9.926;2024-03-02T08:25:14;47.80;;;20.95;;
17953;SDS011;9102;53.548;9.926;2024-03-02T08:27:41;40.05;;;19.90;;
17953;SDS011;9102;53.548;9.926;2024-03-02T08:30:09;41.50;;;20.08;;
17953;SDS011;9102;53.548;9.926;2024-03-02T08:32:37;48.65;;;20.52;;
17953;SDS011;9102;53.548;9.926;2024-03-02T08:35:06;43.70;;;20.98;;
17953;SDS011;9102;53.548;9.926;2024-03-02T08:37:34;43.75;;;21.08;;
17953;SDS011;9102;53.548;9.926;2024-03-02T08:40:03;46.17;;;21.92;;
17953;SDS011;9102;53.548;9.926;2024-03-02T08:42:32;42.97;;;20.15;;
17953;SDS011;9102;53.548;9.926;2024-03-02T08:44:59;41.70;;;20.63;;
17953;SDS011;9102;53.548;9.926;2024-03-02T08:47:27;47.08;;;19.80;;
17953;SDS011;9102;53.548;9.926;2024-03-02T08:49:53;42.72;;;21.00;;
17953;SDS011;9102;53.548;9.926;2024-03-02T08:52:20;40.03;;;19.08;;
17953;SDS011;9102;53.548;9.926;2024-03-02T08:54:48;41.72;;;20.00;;
17953;SDS011;9102;53.548;9.926;2024-03-02T08:57:15;40.72;;;19.83;;
17953;SDS011;9102;53.548;9.926;2024-03-02T08:59:42;42.10;;;19.50;;
17953;SDS011;9102;53.548;9.926;2024-03-02T09:02:09;37.50;;;18.98;;
17953;SDS011;9102;53.548;9.926;2024-03-02T09:04:36;38.92;;;19.77;;
17953;SDS011;9102;53.548;9.926;2024-03-02T09:07:03;33.40;;;17.65;;
17953;SDS011;9102;53.548;9.926;2024-03-02T09:09:30;36.75;;;19.17;;
17953;SDS011;9102;53.548;9.926;2024-03-02T09:11:59;36.95;;;18.00;;
17953;SDS011;9102;53.548;9.926;2024-03-02T09:14:26;36.80;;;18.80;;
17953;SDS011;9102;53.548;9.926;2024-03-02T09:16:53;38.47;;;18.25;;
17953;SDS011;9102;53.548;9.926;2024-03-02T09:19:20;32.55;;;18.20;;
17953;SDS011;9102;53.548;9.926;2024-03-02T09:21:47;35.42;;;18.33;;
17953;SDS011;9102;53.548;9.926;2024-03-02T09:24:13;32.80;;;16.92;;
17953;SDS011;9102;53.548;9.926;2024-03-02T09:26:40;33.47;;;16.92;;
17953;SDS011;9102;53.548;9.926;2024-03-02T09:29:08;31.00;;;16.45;;
17953;SDS011;9102;53.548;9.926;2024-03-02T09:31:38;33.35;;;17.17;;
17953;SDS011;9102;53.548;9.926;2024-03-02T09:34:05;29.60;;;15.43;;
17953;SDS011;9102;53.548;9.926;2024-03-02T09:36:32;29.98;;;16.40;;
17953;SDS011;9102;53.548;9.926;2024-03-02T09:38:59;32.13;;;15.85;;
17953;SDS011;9102;53.548;9.926;2024-03-02T09:41:26;33.72;;;16.25;;
17953;SDS011;9102;53.548;9.926;2024-03-02T09:43:54;29.92;;;15.90;;
17953;SDS011;9102;53.548;9.926;2024-03-02T09:46:24;27.70;;;15.38;;
17953;SDS011;9102;53.548;9.926;2024-03-02T09:48:51;29.73;;;15.75;;
17953;SDS011;9102;53.548;9.926;2024-03-02T09:51:17;31.27;;;16.33;;
17953;SDS011;9102;53.548;9.926;2024-03-02T09:53:46;28.23;;;15.48;;
17953;SDS011;9102;53.548;9.926;2024-03-02T09:56:13;29.58;;;15.23;;
17953;SDS011;9102;53.548;9.926;2024-03-02T09:58:41;29.92;;;15.25;;
17953;SDS011;9102;53.548;9.926;2024-03-02T10:01:09;31.25;;;14.65;;
17953;SDS011;9102;53.548;9.926;2024-03-02T10:03:37;28.73;;;15.13;;
17953;SDS011;9102;53.548;9.926;2024-03-02T10:06:20;25.15;;;14.52;;
17953;SDS011;9102;53.548;9.926;2024-03-02T10:08:47;27.55;;;14.70;;
17953;SDS011;9102;53.548;9.926;2024-03-02T10:11:27;26.80;;;14.93;;
17953;SDS011;9102;53.548;9.926;2024-03-02T10:14:05;25.13;;;13.82;;
17953;SDS011;9102;53.548;9.926;2024-03-02T10:16:33;25.67;;;13.88;;
17953;SDS011;9102;53.548;9.926;2024-03-02T10:19:16;22.65;;;12.85;;
17953;SDS011;9102;53.548;9.926;2024-03-02T10:21:44;24.45;;;13.00;;
17953;SDS011;9102;53.548;9.926;2024-03-02T10:24:11;24.35;;;13.43;;
17953;SDS011;9102;53.548;9.926;2024-03-02T10:26:38;22.10;;;12.82;;
17953;SDS011;9102;53.548;9.926;2024-03-02T10:29:08;24.48;;;12.98;;
17953;SDS011;9102;53.548;9.926;2024-03-02T10:31:36;27.00;;;13.00;;
17953;SDS011;9102;53.548;9.926;2024-03-02T10:34:03;22.23;;;11.93;;
17953;SDS011;9102;53.548;9.926;2024-03-02T10:36:32;21.83;;;11.43;;
17953;SDS011;9102;53.548;9.926;2024-03-02T10:39:00;24.90;;;10.85;;
17953;SDS011;9102;53.548;9.926;2024-03-02T10:41:29;22.30;;;11.25;;
17953;SDS011;9102;53.548;9.926;2024-03-02T10:43:59;21.58;;;10.57;;
17953;SDS011;9102;53.548;9.926;2024-03-02T10:46:28;19.00;;;9.85;;
17953;SDS011;9102;53.548;9.926;2024-03-02T10:48:56;22.40;;;9.68;;
17953;SDS011;9102;53.548;9.926;2024-03-02T10:51:24;17.42;;;8.98;;
17953;SDS011;9102;53.548;9.926;2024-03-02T10:53:52;17.25;;;8.77;;
17953;SDS011;9102;53.548;9.926;2024-03-02T10:56:21;18.60;;;9.38;;
17953;SDS011;9102;53.548;9.926;2024-03-02T10:58:54;17.88;;;9.32;;
17953;SDS011;9102;53.548;9.926;2024-03-02T11:01:37;16.23;;;8.73;;
17953;SDS011;9102;53.548;9.926;2024-03-02T11:04:06;16.50;;;8.50;;
17953;SDS011;9102;53.548;9.926;2024-03-02T11:06:35;18.30;;;8.75;;
17953;SDS011;9102;53.548;9.926;2024-03-02T11:09:06;16.77;;;9.23;;
17953;SDS011;9102;53.548;9.926;2024-03-02T11:11:36;17.58;;;9.07;;
17953;SDS011;9102;53.548;9.926;2024-03-02T11:14:06;14.77;;;7.45;;
17953;SDS011;9102;53.548;9.926;2024-03-02T11:16:37;16.63;;;8.18;;
17953;SDS011;9102;53.548;9.926;2024-03-02T11:19:06;18.38;;;8.43;;
17953;SDS011;9102;53.548;9.926;2024-03-02T11:21:36;12.15;;;7.13;;
17953;SDS011;9102;53.548;9.926;2024-03-02T11:26:58;15.32;;;7.55;;
17953;SDS011;9102;53.548;9.926;2024-03-02T11:29:45;14.23;;;7.82;;
17953;SDS011;9102;53.548;9.926;2024-03-02T11:32:16;18.63;;;7.07;;
17953;SDS011;9102;53.548;9.926;2024-03-02T11:34:45;13.32;;;7.43;;
17953;SDS011;9102;53.548;9.926;2024-03-02T11:37:12;17.38;;;7.60;;
17953;SDS011;9102;53.548;9.926;2024-03-02T11:39:41;13.98;;;7.50;;
17953;SDS011;9102;53.548;9.926;2024-03-02T11:42:10;12.43;;;6.63;;
17953;SDS011;9102;53.548;9.926;2024-03-02T11:44:39;14.25;;;6.53;;
17953;SDS011;9102;53.548;9.926;2024-03-02T11:47:08;14.18;;;6.97;;
17953;SDS011;9102;53.548;9.926;2024-03-02T11:49:39;13.93;;;7.68;;
17953;SDS011;9102;53.548;9.926;2024-03-02T11:52:07;12.23;;;8.18;;
17953;SDS011;9102;53.548;9.926;2024-03-02T11:54:36;14.80;;;8.05;;
17953;SDS011;9102;53.548;9.926;2024-03-02T11:57:06;14.70;;;7.88;;
17953;SDS011;9102;53.548;9.926;2024-03-02T11:59:33;17.20;;;9.48;;
17953;SDS011;9102;53.548;9.926;2024-03-02T12:02:00;13.02;;;7.75;;
17953;SDS011;9102;53.548;9.926;2024-03-02T12:04:28;15.63;;;8.30;;
17953;SDS011;9102;53.548;9.926;2024-03-02T12:06:56;15.60;;;8.93;;
17953;SDS011;9102;53.548;9.926;2024-03-02T12:09:25;16.30;;;8.05;;
17953;SDS011;9102;53.548;9.926;2024-03-02T12:12:03;15.60;;;7.90;;
17953;SDS011;9102;53.548;9.926;2024-03-02T12:14:33;14.98;;;8.15;;
17953;SDS011;9102;53.548;9.926;2024-03-02T12:17:01;15.55;;;8.27;;
17953;SDS011;9102;53.548;9.926;2024-03-02T12:19:28;14.68;;;7.38;;
17953;SDS011;9102;53.548;9.926;2024-03-02T12:21:56;13.75;;;7.22;;
17953;SDS011;9102;53.548;9.926;2024-03-02T12:24:23;11.95;;;6.80;;
17953;SDS011;9102;53.548;9.926;2024-03-02T12:26:52;15.82;;;7.88;;
17953;SDS011;9102;53.548;9.926;2024-03-02T12:29:21;12.60;;;6.57;;
17953;SDS011;9102;53.548;9.926;2024-03-02T12:31:49;12.60;;;7.03;;
17953;SDS011;9102;53.548;9.926;2024-03-02T12:34:17;13.00;;;7.28;;
17953;SDS011;9102;53.548;9.926;2024-03-02T12:36:45;15.20;;;7.13;;
17953;SDS011;9102;53.548;9.926;2024-03-02T12:39:14;16.17;;;7.85;;
17953;SDS011;9102;53.548;9.926;2024-03-02T12:41:42;17.73;;;8.10;;
17953;SDS011;9102;53.548;9.926;2024-03-02T12:44:09;15.27;;;7.90;;
17953;SDS011;9102;53.548;9.926;2024-03-02T12:46:37;12.90;;;6.88;;
17953;SDS011;9102;53.548;9.926;2024-03-02T12:49:05;15.80;;;7.43;;
17953;SDS011;9102;53.548;9.926;2024-03-02T12:51:35;14.63;;;6.88;;
17953;SDS011;9102;53.548;9.926;2024-03-02T12:54:03;11.82;;;6.38;;
17953;SDS011;9102;53.548;9.926;2024-03-02T12:56:30;12.63;;;6.22;;
17953;SDS011;9102;53.548;9.926;2024-03-02T12:58:58;11.35;;;5.90;;
17953;SDS011;9102;53.548;9.926;2024-03-02T13:01:25;12.60;;;5.57;;
17953;SDS011;9102;53.548;9.926;2024-03-02T13:03:54;12.93;;;5.90;;
17953;SDS011;9102;53.548;9.926;2024-03-02T13:06:22;12.32;;;6.03;;
17953;SDS011;9102;53.548;9.926;2024-03-02T13:08:49;11.75;;;6.15;;
17953;SDS011;9102;53.548;9.926;2024-03-02T13:11:16;12.55;;;5.55;;
17953;SDS011;9102;53.548;9.926;2024-03-02T13:13:43;13.68;;;6.07;;
17953;SDS011;9102;53.548;9.926;2024-03-02T13:16:10;20.23;;;7.03;;
17953;SDS011;9102;53.548;9.926;2024-03-02T13:18:38;15.88;;;8.23;;
17953;SDS011;9102;53.548;9.926;2024-03-02T13:21:08;18.08;;;6.90;;
17953;SDS011;9102;53.548;9.926;2024-03-02T13:23:35;14.20;;;7.35;;
17953;SDS011;9102;53.548;9.926;2024-03-02T13:26:02;14.15;;;7.00;;
17953;SDS011;9102;53.548;9.926;2024-03-02T13:28:29;14.93;;;6.85;;
17953;SDS011;9102;53.548;9.926;2024-03-02T13:30:56;16.17;;;7.32;;
17953;SDS011;9102;53.548;9.926;2024-03-02T13:33:23;14.40;;;7.47;;
17953;SDS011;9102;53.548;9.926;2024-03-02T13:35:50;13.48;;;7.32;;
17953;SDS011;9102;53.548;9.926;2024-03-02T13:38:18;14.82;;;6.90;;
17953;SDS011;9102;53.548;9.926;2024-03-02T13:40:46;12.32;;;6.50;;
17953;SDS011;9102;53.548;9.926;2024-03-02T13:43:16;14.02;;;6.43;;
17953;SDS011;9102;53.548;9.926;2024-03-02T13:45:43;12.43;;;6.22;;
17953;SDS011;9102;53.548;9.926;2024-03-02T13:48:10;12.10;;;6.03;;
17953;SDS011;9102;53.548;9.926;2024-03-02T13:50:37;10.80;;;6.63;;
17953;SDS011;9102;53.548;9.926;2024-03-02T13:53:04;12.85;;;7.35;;
17953;SDS011;9102;53.548;9.926;2024-03-02T13:55:33;12.68;;;7.05;;
17953;SDS011;9102;53.548;9.926;2024-03-02T13:58:00;12.30;;;6.72;;
17953;SDS011;9102;53.548;9.926;2024-03-02T14:00:27;16.67;;;7.43;;
17953;SDS011;9102;53.548;9.926;2024-03-02T14:02:54;13.80;;;7.47;;
17953;SDS011;9102;53.548;9.926;2024-03-02T14:05:21;14.05;;;8.00;;
17953;SDS011;9102;53.548;9.926;2024-03-02T14:07:48;17.55;;;8.15;;
17953;SDS011;9102;53.548;9.926;2024-03-02T14:10:15;14.73;;;7.60;;
17953;SDS011;9102;53.548;9.926;2024-03-02T14:12:44;15.68;;;8.27;;
17953;SDS011;9102;53.548;9.926;2024-03-02T14:15:11;15.50;;;8.13;;
17953;SDS011;9102;53.548;9.926;2024-03-02T14:17:38;13.88;;;7.75;;
17953;SDS011;9102;53.548;9.926;2024-03-02T14:20:06;16.45;;;8.07;;
17953;SDS011;9102;53.548;9.926;2024-03-02T14:22:35;14.10;;;7.88;;
17953;SDS011;9102;53.548;9.926;2024-03-02T14:25:02;13.95;;;7.47;;
17953;SDS011;9102;53.548;9.926;2024-03-02T14:27:29;14.85;;;7.68;;
17953;SDS011;9102;53.548;9.926;2024-03-02T14:29:58;12.68;;;7.18;;
17953;SDS011;9102;53.548;9.926;2024-03-02T14:32:24;12.35;;;6.95;;
17953;SDS011;9102;53.548;9.926;2024-03-02T14:34:51;15.43;;;7.78;;
17953;SDS011;9102;53.548;9.926;2024-03-02T14:37:18;15.90;;;7.57;;
17953;SDS011;9102;53.548;9.926;2024-03-02T14:39:45;15.52;;;7.80;;
17953;SDS011;9102;53.548;9.926;2024-03-02T14:42:12;17.00;;;8.70;;
17953;SDS011;9102;53.548;9.926;2024-03-02T14:44:39;13.52;;;7.18;;
17953;SDS011;9102;53.548;9.926;2024-03-02T14:47:07;13.98;;;7.68;;